Time;durP1;ratioP1;P1;durP2;ratioP2;P2;SDS_P1;SDS_P2;PMS_P1;PMS_P2;Temp;Humidity;BMP_temperature;BMP_pressure;BME280_temperature;BME280_humidity;BME280_pressure;Samples;Min_cycle;Max_cycle;Signal;HPM_P1;HPM_P2
2023/02/08 00:01:24;;;;;;;25.90;11.70;;;;;;;-11.76;100.00;102365.71;109345;1254;74839;-56
2023/02/08 00:03:53;;;;;;;22.90;11.30;;;;;;;-11.78;100.00;102366.85;109295;1254;66751;-57
2023/02/08 00:06:22;;;;;;;22.80;12.10;;;;;;;-11.81;100.00;102365.17;109308;1254;72647;-59
2023/02/08 00:08:50;;;;;;;21.10;10.30;;;;;;;-11.83;100.00;102361.80;109251;1253;61803;-56
2023/02/08 00:11:18;;;;;;;23.00;11.80;;;;;;;-11.85;100.00;102363.16;109317;1251;60322;-56
2023/02/08 00:13:47;;;;;;;25.30;12.50;;;;;;;-11.86;100.00;102366.50;109273;1251;74874;-56
2023/02/08 00:16:17;;;;;;;31.40;12.90;;;;;;;-11.88;100.00;102369.17;109372;1251;66775;-59
2023/02/08 00:18:46;;;;;;;23.10;11.60;;;;;;;-11.89;100.00;102371.17;109273;1251;74649;-56
2023/02/08 00:21:15;;;;;;;24.70;11.30;;;;;;;-11.90;100.00;102366.13;109367;1251;62001;-56
2023/02/08 00:23:45;;;;;;;25.60;11.30;;;;;;;-11.90;100.00;102360.27;109354;1253;61240;-55
2023/02/08 00:26:13;;;;;;;22.10;10.70;;;;;;;-11.92;100.00;102358.75;109328;1253;74952;-58
2023/02/08 00:28:42;;;;;;;23.70;10.90;;;;;;;-11.94;100.00;102365.09;109162;1254;67000;-56
2023/02/08 00:31:11;;;;;;;20.70;10.80;;;;;;;-11.95;100.00;102366.95;109364;1253;73875;-56
2023/02/08 00:33:41;;;;;;;20.60;10.10;;;;;;;-11.95;100.00;102370.46;109223;1253;61947;-54
2023/02/08 00:36:10;;;;;;;27.60;13.70;;;;;;;-11.96;100.00;102366.42;109379;1253;60010;-54
2023/02/08 00:38:44;;;;;;;23.90;11.50;;;;;;;-11.96;100.00;102368.44;109264;1254;75562;-54
2023/02/08 00:41:13;;;;;;;27.50;13.10;;;;;;;-11.97;100.00;102364.55;109345;1251;67201;-54
2023/02/08 00:43:41;;;;;;;24.60;12.30;;;;;;;-11.97;100.00;102368.26;109335;1251;73560;-54
2023/02/08 00:46:10;;;;;;;22.40;11.20;;;;;;;-11.98;100.00;102370.26;109305;1251;62898;-54
2023/02/08 00:48:42;;;;;;;23.80;10.80;;;;;;;-12.00;100.00;102372.61;109268;1253;61893;-54
2023/02/08 00:51:15;;;;;;;28.20;13.90;;;;;;;-12.03;100.00;102373.08;109327;1254;75113;-54
2023/02/08 00:53:44;;;;;;;26.10;12.20;;;;;;;-12.04;100.00;102370.23;109269;1253;67926;-54
2023/02/08 00:56:15;;;;;;;22.50;11.50;;;;;;;-12.06;100.00;102368.70;109320;1251;73387;-56
2023/02/08 00:58:48;;;;;;;27.50;11.20;;;;;;;-12.07;100.00;102369.36;109289;1254;63181;-54
2023/02/08 01:01:17;;;;;;;22.90;11.10;;;;;;;-12.10;100.00;102374.52;109350;1253;61283;-54
2023/02/08 01:03:47;;;;;;;22.90;11.00;;;;;;;-12.10;100.00;102376.54;109335;1252;73732;-56
2023/02/08 01:06:19;;;;;;;18.90;9.40;;;;;;;-12.12;100.00;102384.73;109331;1251;68058;-59
2023/02/08 01:08:48;;;;;;;21.20;10.10;;;;;;;-12.14;100.00;102385.39;109345;1251;73361;-56
2023/02/08 01:11:21;;;;;;;22.00;9.80;;;;;;;-12.14;100.00;102394.10;109300;1253;61958;-55
2023/02/08 01:13:54;;;;;;;28.40;11.90;;;;;;;-12.16;100.00;102399.43;109332;1251;60250;-55
2023/02/08 01:16:28;;;;;;;21.10;11.10;;;;;;;-12.18;100.00;102395.91;109235;1254;75314;-57
2023/02/08 01:18:57;;;;;;;22.40;10.20;;;;;;;-12.19;100.00;102401.77;109343;1253;66423;-55
2023/02/08 01:21:28;;;;;;;23.70;11.00;;;;;;;-12.21;100.00;102404.59;109276;1253;73909;-55
2023/02/08 01:23:56;;;;;;;21.30;11.10;;;;;;;-12.22;100.00;102401.23;109310;1254;61951;-55
2023/02/08 01:26:25;;;;;;;27.30;10.80;;;;;;;-12.22;100.00;102406.77;109251;1253;61116;-58
2023/02/08 01:28:54;;;;;;;25.50;10.90;;;;;;;-12.22;100.00;102410.62;109314;1254;74735;-55
2023/02/08 01:31:26;;;;;;;19.00;9.70;;;;;;;-12.23;100.00;102411.27;109326;1253;67020;-55
2023/02/08 01:33:56;;;;;;;23.20;10.80;;;;;;;-12.24;100.00;102413.27;109315;1251;72643;-57
2023/02/08 01:36:24;;;;;;;22.20;11.30;;;;;;;-12.25;100.00;102413.77;109191;1253;62432;-54
2023/02/08 01:38:53;;;;;;;25.70;12.10;;;;;;;-12.27;100.00;102416.28;109321;1254;61277;-54
2023/02/08 01:41:24;;;;;;;23.90;11.00;;;;;;;-12.29;100.00;102421.11;109355;1251;74676;-54
2023/02/08 01:43:59;;;;;;;25.00;10.70;;;;;;;-12.30;100.00;102421.09;109369;1253;68208;-57
2023/02/08 01:46:28;;;;;;;24.30;11.20;;;;;;;-12.33;100.00;102424.76;109292;1251;72310;-54
2023/02/08 01:49:09;;;;;;;18.40;8.40;;;;;;;-12.34;100.00;102424.91;109317;1251;61782;-55
2023/02/08 01:51:41;;;;;;;18.70;9.50;;;;;;;-12.35;100.00;102423.89;109273;1253;60311;-55
2023/02/08 01:54:10;;;;;;;22.60;10.40;;;;;;;-12.35;100.00;102421.52;109226;1254;75048;-54
2023/02/08 01:56:40;;;;;;;22.90;11.00;;;;;;;-12.35;100.00;102422.56;109296;1251;66153;-54
2023/02/08 01:59:13;;;;;;;22.00;10.00;;;;;;;-12.36;100.00;102424.05;109208;1253;72623;-57
2023/02/08 02:01:42;;;;;;;21.70;9.70;;;;;;;-12.38;100.00;102429.73;109118;1254;63186;-56
2023/02/08 02:04:11;;;;;;;24.90;10.30;;;;;;;-12.38;100.00;102430.23;109084;1252;61772;-58
2023/02/08 02:06:41;;;;;;;21.70;11.40;;;;;;;-12.40;100.00;102431.39;109331;1251;74809;-55
2023/02/08 02:09:14;;;;;;;25.20;11.10;;;;;;;-12.41;100.00;102433.55;109251;1253;67908;-55
2023/02/08 02:11:43;;;;;;;22.00;10.70;;;;;;;-12.41;100.00;102438.23;109289;1253;73673;-55
2023/02/08 02:14:12;;;;;;;23.80;11.70;;;;;;;-12.43;100.00;102435.53;109255;1253;62322;-56
2023/02/08 02:16:44;;;;;;;26.50;11.70;;;;;;;-12.45;100.00;102433.84;109388;1253;60335;-55
2023/02/08 02:19:18;;;;;;;26.50;11.40;;;;;;;-12.47;100.00;102441.17;109281;1253;74752;-55
2023/02/08 02:22:08;;;;;;;28.90;11.00;;;;;;;-12.48;100.00;102440.34;109214;1253;68144;-55
2023/02/08 02:25:29;;;;;;;23.00;9.80;;;;;;;-12.50;100.00;102445.83;109150;1253;72560;-55
2023/02/08 02:27:59;;;;;;;23.50;11.00;;;;;;;-12.52;100.00;102444.83;109003;1252;63197;-55
2023/02/08 02:30:49;;;;;;;19.00;9.90;;;;;;;-12.51;100.00;102446.83;109154;1251;207358;-55
2023/02/08 02:33:41;;;;;;;24.00;10.10;;;;;;;-12.53;100.00;102448.67;109249;1254;73780;-58
2023/02/08 02:36:27;;;;;;;24.30;11.70;;;;;;;-12.50;100.00;102450.37;109325;1251;68062;-55
2023/02/08 02:39:42;;;;;;;23.70;10.80;;;;;;;-12.48;100.00;102459.77;109203;1253;73802;-54
2023/02/08 02:46:08;;;;;;;25.30;11.20;;;;;;;-12.49;100.00;102465.95;108688;1260;60317;-55
2023/02/08 02:48:54;;;;;;;27.60;11.20;;;;;;;-12.51;100.00;102467.94;109259;1253;73554;-57
2023/02/08 02:51:36;;;;;;;22.20;9.60;;;;;;;-12.51;100.00;102474.14;109209;1253;67004;-55
2023/02/08 02:54:13;;;;;;;26.80;10.80;;;;;;;-12.51;100.00;102475.48;109203;1253;73553;-57
2023/02/08 02:56:44;;;;;;;25.60;10.60;;;;;;;-12.50;100.00;102478.16;109079;1254;62996;-54
2023/02/08 02:59:14;;;;;;;23.20;11.90;;;;;;;-12.52;100.00;102481.67;109232;1253;59961;-54
2023/02/08 03:01:43;;;;;;;21.70;10.30;;;;;;;-12.53;100.00;102481.66;109320;1251;74799;-54
2023/02/08 03:04:14;;;;;;;22.90;10.00;;;;;;;-12.54;100.00;102481.98;109070;1254;68078;-56
2023/02/08 03:07:12;;;;;;;23.50;10.20;;;;;;;-12.55;100.00;102492.69;109270;1254;72573;-54
2023/02/08 03:10:02;;;;;;;22.10;9.60;;;;;;;-12.56;100.00;102494.02;109156;1254;63328;-57
2023/02/08 03:13:21;;;;;;;26.40;12.70;;;;;;;-12.57;100.00;102491.98;109328;1253;60911;-55
2023/02/08 03:16:10;;;;;;;19.60;9.60;;;;;;;-12.58;100.00;102498.99;108974;1253;74867;-55
2023/02/08 03:18:53;;;;;;;22.50;11.10;;;;;;;-12.57;100.00;102501.88;109202;1254;66659;-54
2023/02/08 03:21:51;;;;;;;23.90;9.80;;;;;;;-12.55;100.00;102506.92;109276;1253;73637;-55
2023/02/08 03:24:45;;;;;;;17.00;9.00;;;;;;;-12.51;100.00;102512.81;109011;1254;61980;-55
2023/02/08 03:28:01;;;;;;;22.90;10.80;;;;;;;-12.49;100.00;102512.68;109152;1253;60334;-58
2023/02/08 03:30:32;;;;;;;21.10;8.70;;;;;;;-12.52;100.00;102515.48;108670;1253;74670;-57
2023/02/08 03:33:05;;;;;;;;;;;;;;;-12.57;100.00;102516.77;109219;1253;66778;-55
2023/02/08 03:35:36;;;;;;;27.20;10.50;;;;;;;-12.59;100.00;102517.41;109247;1254;73106;-53
2023/02/08 03:38:14;;;;;;;22.50;10.20;;;;;;;-12.62;100.00;102517.71;109259;1253;62952;-53
2023/02/08 03:40:45;;;;;;;20.00;10.20;;;;;;;-12.64;100.00;102522.21;109149;1254;60156;-53
2023/02/08 03:43:14;;;;;;;17.90;7.80;;;;;;;-12.64;100.00;102527.91;109119;1254;75302;-56
2023/02/08 03:45:46;;;;;;;25.60;11.30;;;;;;;-12.64;100.00;102531.59;109206;1253;67810;-57
2023/02/08 03:48:15;;;;;;;22.40;10.30;;;;;;;-12.62;100.00;102537.96;109048;1253;72457;-60
2023/02/08 03:50:48;;;;;;;24.80;10.50;;;;;;;-12.60;100.00;102542.02;109239;1253;62673;-56
2023/02/08 03:53:18;;;;;;;18.40;8.00;;;;;;;-12.58;100.00;102544.39;109162;1254;61268;-56
2023/02/08 03:55:47;;;;;;;20.60;8.90;;;;;;;-12.58;100.00;102550.75;109111;1256;72673;-59
2023/02/08 03:58:17;;;;;;;20.80;9.90;;;;;;;-12.58;100.00;102557.27;109104;1254;67390;-57
2023/02/08 04:01:08;;;;;;;21.80;9.80;;;;;;;-12.58;100.00;102562.14;109202;1254;73492;-55
2023/02/08 04:03:36;;;;;;;22.80;10.90;;;;;;;-12.57;100.00;102567.02;109116;1254;62121;-58
2023/02/08 04:06:06;;;;;;;19.30;9.70;;;;;;;-12.56;100.00;102572.06;109296;1253;59345;-55
2023/02/08 04:08:35;;;;;;;21.90;9.90;;;;;;;-12.57;100.00;102574.73;109310;1253;75589;-54
2023/02/08 04:11:04;;;;;;;24.30;10.30;;;;;;;-12.58;100.00;102574.70;109170;1253;67340;-54
2023/02/08 04:13:32;;;;;;;20.50;10.20;;;;;;;-12.58;100.00;102580.55;109308;1254;72639;-54
2023/02/08 04:16:01;;;;;;;39.70;16.80;;;;;;;-12.60;100.00;102582.22;109191;1257;62240;-54
2023/02/08 04:18:30;;;;;;;22.60;11.00;;;;;;;-12.59;100.00;102588.42;109320;1254;61399;-54
2023/02/08 04:20:58;;;;;;;29.80;15.30;;;;;;;-12.59;100.00;102595.95;109320;1253;74800;-55
2023/02/08 04:23:27;;;;;;;53.80;21.50;;;;;;;-12.58;100.00;102597.14;109314;1253;66486;-55
2023/02/08 04:25:56;;;;;;;59.00;23.80;;;;;;;-12.59;100.00;102597.80;109271;1253;73669;-55
2023/02/08 04:28:24;;;;;;;28.10;12.20;;;;;;;-12.60;100.00;102595.27;109300;1253;61991;-54
2023/02/08 04:30:55;;;;;;;31.40;16.70;;;;;;;-12.61;100.00;102595.27;109289;1253;60188;-54
2023/02/08 04:33:24;;;;;;;38.10;20.20;;;;;;;-12.63;100.00;102600.92;109323;1253;75053;-54
2023/02/08 04:35:52;;;;;;;31.20;15.20;;;;;;;-12.67;100.00;102606.23;109297;1253;66274;-57
2023/02/08 04:38:21;;;;;;;33.80;15.70;;;;;;;-12.72;100.00;102600.96;109240;1253;73762;-55
2023/02/08 04:40:49;;;;;;;29.20;14.10;;;;;;;-12.76;100.00;102605.60;109299;1253;63009;-54
2023/02/08 04:43:18;;;;;;;29.00;13.30;;;;;;;-12.79;100.00;102605.38;109324;1253;61375;-55
2023/02/08 04:45:50;;;;;;;24.70;10.80;;;;;;;-12.82;100.00;102611.70;109367;1253;74969;-57
2023/02/08 04:48:19;;;;;;;23.80;11.10;;;;;;;-12.85;100.00;102609.64;109263;1253;67564;-54
2023/02/08 04:50:47;;;;;;;23.20;10.20;;;;;;;-12.85;100.00;102610.30;109378;1254;73699;-54
2023/02/08 04:53:16;;;;;;;19.20;10.40;;;;;;;-12.87;100.00;102613.30;109298;1254;61953;-54
2023/02/08 04:55:44;;;;;;;24.80;10.20;;;;;;;-12.86;100.00;102610.63;109319;1253;60318;-57
2023/02/08 04:58:12;;;;;;;20.70;10.00;;;;;;;-12.85;100.00;102611.64;109331;1252;74845;-57
2023/02/08 05:00:41;;;;;;;21.10;9.40;;;;;;;-12.81;100.00;102615.39;109352;1254;67659;-56
2023/02/08 05:03:10;;;;;;;21.40;9.60;;;;;;;-12.78;100.00;102617.95;109386;1252;72559;-56
2023/02/08 05:05:39;;;;;;;22.90;10.10;;;;;;;-12.73;100.00;102621.87;109291;1253;61978;-59
2023/02/08 05:08:07;;;;;;;20.50;9.40;;;;;;;-12.66;100.00;102633.52;109301;1254;61297;-57
2023/02/08 05:10:36;;;;;;;24.10;10.40;;;;;;;-12.58;100.00;102634.15;109316;1254;75199;-54
2023/02/08 05:13:06;;;;;;;22.80;10.00;;;;;;;-12.49;100.00;102637.80;109373;1254;68220;-55
2023/02/08 05:15:35;;;;;;;21.40;10.40;;;;;;;-12.39;100.00;102643.15;109371;1253;72594;-57
2023/02/08 05:18:04;;;;;;;20.70;9.50;;;;;;;-12.28;100.00;102647.81;109414;1252;60221;-54
2023/02/08 05:20:33;;;;;;;21.90;10.70;;;;;;;-12.17;100.00;102649.14;109419;1255;61156;-54
2023/02/08 05:23:01;;;;;;;22.40;9.60;;;;;;;-12.08;100.00;102644.73;109284;1254;73768;-54
2023/02/08 05:25:31;;;;;;;28.60;13.50;;;;;;;-11.97;100.00;102650.90;109345;1251;67784;-54
2023/02/08 05:27:59;;;;;;;41.40;17.00;;;;;;;-11.85;100.00;102653.05;109338;1253;72585;-54
2023/02/08 05:30:28;;;;;;;25.20;11.60;;;;;;;-11.70;100.00;102651.69;109408;1253;62021;-54
2023/02/08 05:32:57;;;;;;;19.70;9.10;;;;;;;-11.53;100.00;102650.53;109325;1254;59198;-54
2023/02/08 05:35:26;;;;;;;21.10;10.30;;;;;;;-11.35;100.00;102652.41;109405;1254;73826;-54
2023/02/08 05:37:54;;;;;;;23.10;9.70;;;;;;;-11.18;100.00;102654.41;109293;1254;67700;-54
2023/02/08 05:40:23;;;;;;;26.60;11.10;;;;;;;-10.97;100.00;102650.23;109385;1254;73645;-54
2023/02/08 05:42:51;;;;;;;21.10;10.00;;;;;;;-10.73;100.00;102652.77;109379;1254;62346;-54
2023/02/08 05:45:19;;;;;;;18.50;9.80;;;;;;;-10.42;100.00;102654.83;109418;1252;61365;-54
2023/02/08 05:47:48;;;;;;;19.70;9.70;;;;;;;-9.96;100.00;102647.14;109321;1254;75092;-61
2023/02/08 05:50:17;;;;;;;19.40;10.00;;;;;;;-9.45;100.00;102651.52;109416;1254;68055;-54
2023/02/08 05:52:45;;;;;;;18.90;9.80;;;;;;;-8.88;100.00;102654.95;109365;1253;73414;-57
2023/02/08 05:55:13;;;;;;;24.00;10.80;;;;;;;-8.27;100.00;102655.71;109361;1254;61896;-54
2023/02/08 05:57:41;;;;;;;20.70;10.50;;;;;;;-7.75;100.00;102656.86;109361;1253;61308;-54
2023/02/08 06:00:10;;;;;;;18.90;9.80;;;;;;;-7.37;100.00;102653.29;109349;1254;74831;-55
2023/02/08 06:02:47;;;;;;;19.90;10.00;;;;;;;-7.19;100.00;102656.05;109301;1254;67552;-55
2023/02/08 06:05:16;;;;;;;19.90;11.10;;;;;;;-7.14;100.00;102658.05;109366;1254;72313;-54
2023/02/08 06:07:45;;;;;;;23.50;11.70;;;;;;;-6.99;100.00;102655.57;109295;1254;60995;-56
2023/02/08 06:10:14;;;;;;;21.00;11.00;;;;;;;-6.77;100.00;102655.74;109378;1252;60277;-59
2023/02/08 06:12:42;;;;;;;23.70;13.60;;;;;;;-6.43;100.00;102657.45;109329;1252;73650;-57
2023/02/08 06:15:11;;;;;;;27.50;14.40;;;;;;;-6.07;100.00;102657.57;109340;1255;68145;-55
2023/02/08 06:17:41;;;;;;;26.50;12.80;;;;;;;-5.68;100.00;102657.75;109330;1254;72596;-55
2023/02/08 06:20:10;;;;;;;34.20;19.10;;;;;;;-5.52;100.00;102650.43;109356;1254;61162;-55
2023/02/08 06:22:39;;;;;;;24.10;13.30;;;;;;;-5.34;100.00;102650.85;109373;1253;60379;-59
2023/02/08 06:25:07;;;;;;;24.20;13.50;;;;;;;-5.10;100.00;102652.20;109381;1255;73722;-54
2023/02/08 06:27:36;;;;;;;29.50;14.10;;;;;;;-4.84;100.00;102654.66;109334;1254;67774;-56
2023/02/08 06:30:05;;;;;;;20.90;12.00;;;;;;;-4.34;100.00;102654.48;109406;1253;72602;-55
2023/02/08 06:32:33;;;;;;;23.70;13.70;;;;;;;-3.82;100.00;102654.16;109291;1254;59543;-55
2023/02/08 06:35:02;;;;;;;29.10;16.00;;;;;;;-3.63;100.00;102654.95;109358;1252;61022;-55
2023/02/08 06:37:30;;;;;;;27.40;13.60;;;;;;;-3.80;100.00;102655.13;109417;1251;74466;-57
2023/02/08 06:40:00;;;;;;;26.30;14.30;;;;;;;-4.15;100.00;102655.83;109368;1254;67092;-55
2023/02/08 06:42:29;;;;;;;20.80;12.30;;;;;;;-4.53;100.00;102658.73;109333;1253;73781;-55
2023/02/08 06:44:58;;;;;;;23.90;13.40;;;;;;;-4.70;100.00;102663.25;109325;1252;60043;-55
2023/02/08 06:47:26;;;;;;;24.20;13.60;;;;;;;-4.77;100.00;102671.69;109340;1252;60285;-58
2023/02/08 06:49:55;;;;;;;19.60;11.50;;;;;;;-4.74;100.00;102670.79;109363;1255;73739;-55
2023/02/08 06:52:23;;;;;;;18.80;10.70;;;;;;;-4.67;100.00;102677.63;109309;1254;68074;-56
2023/02/08 06:54:51;;;;;;;19.80;12.00;;;;;;;-4.68;100.00;102675.09;109363;1252;73345;-55
2023/02/08 06:57:20;;;;;;;20.70;11.10;;;;;;;-4.60;100.00;102678.69;109330;1256;61062;-54
2023/02/08 06:59:48;;;;;;;21.50;12.80;;;;;;;-4.41;100.00;102675.30;109307;1254;61399;-54
2023/02/08 07:02:18;;;;;;;19.80;11.80;;;;;;;-4.21;100.00;102680.38;109278;1255;73471;-58
2023/02/08 07:04:47;;;;;;;21.20;13.00;;;;;;;-4.00;100.00;102675.07;109373;1256;68075;-55
2023/02/08 07:07:16;;;;;;;20.90;12.40;;;;;;;-3.64;100.00;102676.54;109359;1256;72542;-58
2023/02/08 07:09:44;;;;;;;22.70;12.30;;;;;;;-3.24;100.00;102671.94;109344;1252;59598;-55
2023/02/08 07:12:14;;;;;;;20.40;11.20;;;;;;;-2.95;100.00;102667.17;109298;1253;60953;-56
2023/02/08 07:14:43;;;;;;;18.80;11.50;;;;;;;-2.71;100.00;102665.73;109375;1254;74162;-55
2023/02/08 07:17:12;;;;;;;20.50;13.10;;;;;;;-2.44;100.00;102666.40;109347;1252;67864;-55
2023/02/08 07:19:41;;;;;;;21.50;13.30;;;;;;;-2.37;100.00;102668.45;109292;1256;73971;-56
2023/02/08 07:22:09;;;;;;;21.00;13.20;;;;;;;-2.41;100.00;102674.66;109321;1253;59374;-59
2023/02/08 07:24:39;;;;;;;18.90;12.40;;;;;;;-2.38;100.00;102677.48;109364;1256;61303;-56
2023/02/08 07:27:08;;;;;;;22.30;13.80;;;;;;;-2.45;100.00;102675.81;109412;1253;73839;-56
2023/02/08 07:29:37;;;;;;;22.80;13.90;;;;;;;-2.36;100.00;102675.06;109324;1253;66908;-56
2023/02/08 07:32:06;;;;;;;21.00;12.90;;;;;;;-2.22;100.00;102669.23;109363;1251;72673;-57
2023/02/08 07:34:36;;;;;;;17.50;10.90;;;;;;;-2.03;100.00;102667.36;109363;1251;60310;-57
2023/02/08 07:37:05;;;;;;;17.20;10.90;;;;;;;-1.76;100.00;102668.63;109371;1253;59347;-60
2023/02/08 07:39:34;;;;;;;17.20;10.90;;;;;;;-1.53;100.00;102662.67;109345;1252;74581;-57
2023/02/08 07:42:02;;;;;;;17.20;10.30;;;;;;;-1.40;100.00;102661.45;109337;1251;67445;-57
2023/02/08 07:44:31;;;;;;;15.50;9.60;;;;;;;-1.48;100.00;102658.94;109360;1251;73393;-58
2023/02/08 07:47:00;;;;;;;17.00;10.90;;;;;;;-1.78;100.00;102670.05;109358;1252;58576;-56
2023/02/08 07:49:30;;;;;;;16.90;10.00;;;;;;;-2.05;100.00;102671.34;109332;1252;60106;-57
2023/02/08 07:51:59;;;;;;;16.60;10.30;;;;;;;-2.11;100.00;102671.33;109371;1254;74943;-57
2023/02/08 07:54:28;;;;;;;17.60;10.10;;;;;;;-2.10;100.00;102672.84;109374;1254;66841;-59
2023/02/08 07:56:56;;;;;;;18.40;9.20;;;;;;;-2.15;100.00;102675.54;109371;1253;73628;-54
2023/02/08 07:59:25;;;;;;;16.90;9.90;;;;;;;-2.42;100.00;102670.09;109340;1254;60987;-57
2023/02/08 08:01:53;;;;;;;17.20;10.00;;;;;;;-2.66;100.00;102675.49;109388;1252;60289;-57
2023/02/08 08:04:21;;;;;;;16.80;10.20;;;;;;;-2.74;100.00;102673.30;109398;1254;74472;-56
2023/02/08 08:06:50;;;;;;;17.70;10.40;;;;;;;-2.69;100.00;102675.39;109355;1254;67841;-57
2023/02/08 08:09:19;;;;;;;16.00;9.90;;;;;;;-2.56;100.00;102679.33;109356;1254;73395;-57
2023/02/08 08:11:47;;;;;;;16.60;10.00;;;;;;;-2.51;100.00;102679.35;109360;1254;60608;-57
2023/02/08 08:14:17;;;;;;;15.00;9.50;;;;;;;-2.46;100.00;102681.61;109410;1252;60562;-57
2023/02/08 08:16:45;;;;;;;18.60;10.40;;;;;;;-2.59;100.00;102681.94;109398;1251;74100;-56
2023/02/08 08:19:17;;;;;;;18.60;9.90;;;;;;;-2.80;100.00;102684.86;109386;1253;67619;-56
2023/02/08 08:21:45;;;;;;;18.80;11.00;;;;;;;-2.95;100.00;102677.23;109335;1254;72991;-57
2023/02/08 08:24:14;;;;;;;20.20;11.30;;;;;;;-3.06;100.00;102681.72;109345;1251;60377;-56
2023/02/08 08:26:42;;;;;;;17.50;10.10;;;;;;;-3.08;100.00;102681.59;109380;1252;61173;-58
2023/02/08 08:29:12;;;;;;;14.40;8.50;;;;;;;-3.06;100.00;102686.65;109308;1254;73720;-56
2023/02/08 08:31:41;;;;;;;16.10;9.60;;;;;;;-3.09;100.00;102686.22;109406;1252;68494;-57
2023/02/08 08:34:10;;;;;;;18.30;10.40;;;;;;;-3.13;100.00;102692.26;109394;1253;73575;-55
2023/02/08 08:36:39;;;;;;;18.60;11.10;;;;;;;-2.98;100.00;102689.02;109437;1252;59512;-55
2023/02/08 08:39:07;;;;;;;16.40;10.30;;;;;;;-2.66;100.00;102690.30;109345;1251;60189;-57
2023/02/08 08:41:37;;;;;;;16.80;9.30;;;;;;;-2.44;100.00;102693.83;109407;1251;75631;-55
2023/02/08 08:44:05;;;;;;;14.30;8.40;;;;;;;-2.45;100.00;102699.65;109347;1253;68075;-55
2023/02/08 08:46:34;;;;;;;21.60;9.40;;;;;;;-2.53;100.00;102689.64;109398;1253;73514;-55
2023/02/08 08:49:02;;;;;;;18.10;9.50;;;;;;;-2.38;100.00;102690.96;109315;1253;59578;-57
2023/02/08 08:51:36;;;;;;;17.90;9.30;;;;;;;-2.29;100.00;102688.32;109331;1254;61776;-55
2023/02/08 08:54:05;;;;;;;17.00;10.10;;;;;;;-2.31;100.00;102692.48;109434;1251;75860;-58
2023/02/08 08:56:33;;;;;;;23.90;10.30;;;;;;;-2.25;100.00;102696.39;109384;1251;67020;-55
2023/02/08 08:59:02;;;;;;;19.50;10.00;;;;;;;-2.16;100.00;102688.31;109339;1254;73399;-60
2023/02/08 09:01:30;;;;;;;17.20;9.00;;;;;;;-2.21;100.00;102686.91;109392;1253;60286;-57
2023/02/08 09:04:01;;;;;;;17.10;9.40;;;;;;;-2.37;100.00;102686.34;109431;1251;60142;-57
2023/02/08 09:06:30;;;;;;;17.80;9.80;;;;;;;-2.46;100.00;102687.92;109422;1252;74528;-56
2023/02/08 09:08:59;;;;;;;18.60;10.30;;;;;;;-2.41;100.00;102684.74;109370;1253;67017;-59
2023/02/08 09:11:27;;;;;;;16.00;9.30;;;;;;;-2.38;100.00;102681.59;109336;1254;73693;-56
2023/02/08 09:13:55;;;;;;;16.50;9.20;;;;;;;-2.35;100.00;102684.57;109383;1253;59550;-54
2023/02/08 09:16:24;;;;;;;15.50;8.90;;;;;;;-2.38;100.00;102682.77;109288;1253;61575;-54
2023/02/08 09:18:52;;;;;;;18.60;10.30;;;;;;;-2.37;100.00;102689.71;109294;1251;76001;-55
2023/02/08 09:21:24;;;;;;;15.10;9.10;;;;;;;-2.19;100.00;102684.16;109396;1254;68998;-55
2023/02/08 09:23:52;;;;;;;16.60;9.10;;;;;;;-2.10;100.00;102673.68;109342;1254;73378;-54
2023/02/08 09:26:21;;;;;;;16.00;8.60;;;;;;;-2.09;100.00;102668.55;109370;1252;60823;-54
2023/02/08 09:28:49;;;;;;;19.50;10.80;;;;;;;-2.00;100.00;102672.72;109370;1253;61448;-55
2023/02/08 09:31:23;;;;;;;15.60;9.00;;;;;;;-1.81;100.00;102668.44;109334;1252;74623;-54
2023/02/08 09:33:53;;;;;;;19.40;10.70;;;;;;;-1.72;100.00;102666.64;109393;1251;67422;-54
2023/02/08 09:36:22;;;;;;;15.10;8.90;;;;;;;-1.57;100.00;102668.24;109316;1253;73188;-55
2023/02/08 09:38:56;;;;;;;17.80;9.00;;;;;;;-1.38;100.00;102668.19;109353;1253;61072;-57
2023/02/08 09:41:31;;;;;;;15.70;8.80;;;;;;;-1.28;100.00;102664.30;109381;1252;61206;-56
2023/02/08 09:44:09;;;;;;;16.10;8.60;;;;;;;-1.39;98.59;102668.05;109341;1253;75724;-56
2023/02/08 09:46:40;;;;;;;19.40;10.90;;;;;;;-1.72;98.51;102675.70;109368;1251;67893;-56
2023/02/08 09:49:13;;;;;;;22.40;11.90;;;;;;;-1.89;100.00;102674.30;109272;1253;73031;-57
2023/02/08 09:51:46;;;;;;;20.50;10.10;;;;;;;-1.90;100.00;102674.64;109227;1254;60379;-57
2023/02/08 09:54:19;;;;;;;16.80;8.50;;;;;;;-1.88;100.00;102682.97;109205;1253;59974;-57
2023/02/08 09:56:48;;;;;;;18.90;10.80;;;;;;;-1.83;100.00;102688.29;109416;1251;75711;-59
2023/02/08 09:59:22;;;;;;;24.10;13.50;;;;;;;-1.66;100.00;102685.75;109330;1253;67525;-54
2023/02/08 10:01:50;;;;;;;22.20;10.70;;;;;;;-1.52;100.00;102680.73;109175;1254;73454;-55
2023/02/08 10:04:28;;;;;;;17.30;9.60;;;;;;;-1.28;100.00;102680.50;109174;1253;61362;-54
2023/02/08 10:06:57;;;;;;;18.30;8.50;;;;;;;-1.19;100.00;102676.85;109289;1252;61499;-57
2023/02/08 10:09:27;;;;;;;15.70;9.30;;;;;;;-1.25;99.92;102682.62;109353;1252;74570;-54
2023/02/08 10:12:10;;;;;;;15.40;8.30;;;;;;;-1.25;99.13;102682.64;109331;1252;66977;-54
2023/02/08 10:14:58;;;;;;;16.80;8.20;;;;;;;-1.33;99.92;102677.08;109370;1254;72657;-55
2023/02/08 10:17:50;;;;;;;13.70;7.80;;;;;;;-1.25;100.00;102684.00;109306;1252;61372;-55
2023/02/08 10:20:50;;;;;;;13.80;7.70;;;;;;;-1.13;99.88;102685.35;109364;1252;60339;-55
2023/02/08 10:23:28;;;;;;;14.20;8.00;;;;;;;-1.23;98.62;102689.40;109250;1252;75538;-57
2023/02/08 10:26:12;;;;;;;13.70;7.60;;;;;;;-1.41;98.67;102690.63;109402;1251;68070;-58
2023/02/08 10:28:53;;;;;;;15.30;7.80;;;;;;;-1.58;100.00;102686.36;109286;1252;73623;-55
2023/02/08 10:31:24;;;;;;;17.30;8.70;;;;;;;-1.65;100.00;102688.80;109380;1253;61620;-55
2023/02/08 10:33:55;;;;;;;;;;;;;;;-1.62;100.00;102694.34;109380;1251;61702;-54
2023/02/08 10:36:40;;;;;;;15.30;6.80;;;;;;;-1.72;100.00;102691.86;109416;1251;75522;-53
2023/02/08 10:39:16;;;;;;;13.30;7.70;;;;;;;-1.93;100.00;102691.10;109426;1251;68778;-55
2023/02/08 10:41:45;;;;;;;15.00;8.00;;;;;;;-2.04;100.00;102690.56;109401;1251;73103;-54
2023/02/08 10:44:36;;;;;;;17.10;8.50;;;;;;;-1.93;100.00;102690.44;109171;1253;61358;-55
2023/02/08 10:47:17;;;;;;;14.60;8.00;;;;;;;-1.77;100.00;102690.15;109117;1253;60211;-54
2023/02/08 10:49:49;;;;;;;13.80;8.20;;;;;;;-1.72;100.00;102687.77;109179;1254;75642;-54
2023/02/08 10:52:17;;;;;;;14.50;7.70;;;;;;;-1.76;100.00;102686.36;109275;1252;67033;-54
2023/02/08 10:54:46;;;;;;;15.30;7.80;;;;;;;-1.81;100.00;102687.38;109240;1254;71934;-54
2023/02/08 10:57:23;;;;;;;15.50;8.00;;;;;;;-1.84;100.00;102677.57;109289;1253;60339;-53
2023/02/08 10:59:52;;;;;;;14.90;8.90;;;;;;;-1.78;100.00;102675.49;109252;1253;60287;-56
2023/02/08 11:02:25;;;;;;;12.40;7.50;;;;;;;-1.53;100.00;102676.30;109204;1253;75540;-57
2023/02/08 11:05:07;;;;;;;13.90;7.40;;;;;;;-1.38;100.00;102670.59;109354;1253;68004;-54
2023/02/08 11:07:37;;;;;;;12.80;7.30;;;;;;;-1.30;100.00;102666.41;109316;1253;73700;-54
2023/02/08 11:10:26;;;;;;;13.40;6.60;;;;;;;-1.32;100.00;102665.13;109315;1253;60404;-54
2023/02/08 11:12:58;;;;;;;11.40;6.00;;;;;;;-1.30;100.00;102660.95;109323;1253;60256;-54
2023/02/08 11:15:57;;;;;;;14.10;6.80;;;;;;;-1.30;100.00;102658.39;109295;1253;74842;-54
2023/02/08 11:18:26;;;;;;;19.40;7.90;;;;;;;-1.23;100.00;102658.53;109380;1252;67160;-54
2023/02/08 11:20:59;;;;;;;15.30;7.70;;;;;;;-1.18;100.00;102661.59;109301;1252;73645;-56